createdAt,value
2023-02-17T00:01:24.454Z,9.50
2023-02-17T00:03:53.266Z,9.50
2023-02-17T00:06:22.858Z,9.50
2023-02-17T00:08:50.336Z,9.50
2023-02-17T00:11:17.761Z,9.50
2023-02-17T00:13:44.634Z,9.50
2023-02-17T00:16:16.276Z,9.50
2023-02-17T00:18:43.198Z,9.40
2023-02-17T00:21:18.821Z,9.50
2023-02-17T00:23:46.866Z,9.50
2023-02-17T00:26:14.935Z,9.50
2023-02-17T00:28:42.208Z,9.50
2023-02-17T00:31:11.042Z,9.50
2023-02-17T00:33:38.290Z,9.40
2023-02-17T00:36:13.249Z,9.40
2023-02-17T00:38:40.324Z,9.40
2023-02-17T00:41:07.090Z,9.30
2023-02-17T00:43:33.969Z,9.20
2023-02-17T00:46:01.124Z,9.20
2023-02-17T00:48:28.026Z,9.30
2023-02-17T00:50:54.827Z,9.20
2023-02-17T00:53:21.665Z,9.30
2023-02-17T00:55:48.563Z,9.20
2023-02-17T00:58:15.496Z,9.30
2023-02-17T01:00:42.385Z,9.30
2023-02-17T01:03:09.273Z,9.20
2023-02-17T01:05:42.176Z,9.20
2023-02-17T01:08:09.906Z,9.20
2023-02-17T01:10:41.810Z,9.10
2023-02-17T01:13:09.204Z,9.10
2023-02-17T01:15:51.871Z,9.00
2023-02-17T01:18:20.954Z,8.90
2023-02-17T01:20:47.788Z,8.80
2023-02-17T01:23:15.218Z,8.80
2023-02-17T01:25:44.805Z,8.80
2023-02-17T01:28:16.257Z,8.80
2023-02-17T01:30:43.203Z,8.80
2023-02-17T01:33:10.408Z,8.80
2023-02-17T01:35:37.306Z,8.70
2023-02-17T01:38:04.109Z,8.80
2023-02-17T01:40:30.910Z,8.80
2023-02-17T01:42:57.767Z,8.80
2023-02-17T01:45:30.607Z,8.80
2023-02-17T01:48:03.440Z,8.80
2023-02-17T01:50:35.794Z,8.80
2023-02-17T01:53:06.678Z,8.80
2023-02-17T01:55:35.482Z,8.80
2023-02-17T01:58:04.556Z,8.80
2023-02-17T02:00:33.902Z,8.90
2023-02-17T02:03:02.395Z,8.90
2023-02-17T02:05:29.412Z,8.90
2023-02-17T02:07:57.013Z,8.90
2023-02-17T02:10:23.956Z,8.90
2023-02-17T02:12:50.749Z,9.00
2023-02-17T02:15:23.252Z,9.00
2023-02-17T02:17:58.994Z,9.00
2023-02-17T02:20:46.850Z,9.00
2023-02-17T02:23:19.426Z,9.00
2023-02-17T02:26:27.569Z,9.00
2023-02-17T02:29:15.634Z,9.00
2023-02-17T02:31:55.374Z,9.00
2023-02-17T02:34:29.949Z,9.00
2023-02-17T02:37:02.091Z,9.00
2023-02-17T02:39:35.106Z,9.00
2023-02-17T02:42:06.486Z,9.00
2023-02-17T02:44:33.358Z,9.00
2023-02-17T02:47:46.593Z,9.00
2023-02-17T02:50:21.276Z,9.00
2023-02-17T02:53:09.940Z,9.00
2023-02-17T02:55:48.462Z,9.00
2023-02-17T02:58:38.042Z,8.90
2023-02-17T03:01:14.370Z,9.00
2023-02-17T03:04:06.441Z,9.00
2023-02-17T03:06:52.787Z,9.00
2023-02-17T03:09:26.008Z,9.00
2023-02-17T03:11:55.585Z,9.00
2023-02-17T03:14:23.099Z,9.00
2023-02-17T03:16:52.039Z,9.00
2023-02-17T03:19:22.149Z,9.00
2023-02-17T03:21:55.922Z,9.10
2023-02-17T03:24:23.181Z,9.10
2023-02-17T03:26:50.029Z,9.10
2023-02-17T03:29:16.818Z,9.20
2023-02-17T03:31:43.818Z,9.20
2023-02-17T03:34:10.746Z,9.30
2023-02-17T03:36:37.564Z,9.40
2023-02-17T03:39:04.366Z,9.40
2023-02-17T03:41:31.252Z,9.50
2023-02-17T03:43:58.038Z,9.50
2023-02-17T03:46:24.840Z,9.50
2023-02-17T03:48:51.637Z,9.60
2023-02-17T03:51:21.012Z,9.60
2023-02-17T03:53:48.670Z,9.70
2023-02-17T03:56:16.559Z,9.60
2023-02-17T03:58:43.643Z,9.60
2023-02-17T04:01:12.802Z,9.60
2023-02-17T04:03:40.233Z,9.60
2023-02-17T04:06:08.709Z,9.60
2023-02-17T04:08:35.800Z,9.60
2023-02-17T04:11:04.639Z,9.60
2023-02-17T04:13:31.961Z,9.60
2023-02-17T04:16:01.368Z,9.70
2023-02-17T04:18:28.419Z,9.70
2023-02-17T04:20:55.337Z,9.70
2023-02-17T04:23:22.540Z,9.70
2023-02-17T04:25:49.406Z,9.80
2023-02-17T04:28:17.010Z,9.80
2023-02-17T04:30:47.939Z,9.80
2023-02-17T04:33:15.293Z,9.80
2023-02-17T04:35:42.869Z,9.80
2023-02-17T04:38:11.616Z,9.80
2023-02-17T04:40:40.064Z,9.80
2023-02-17T04:43:08.476Z,9.80
2023-02-17T04:45:36.936Z,9.90
2023-02-17T04:48:03.868Z,9.90
2023-02-17T04:50:30.771Z,9.90
2023-02-17T04:52:57.621Z,9.90
2023-02-17T04:55:24.464Z,9.90
2023-02-17T04:57:51.316Z,9.90
2023-02-17T05:00:18.409Z,9.90
2023-02-17T05:02:45.293Z,9.90
2023-02-17T05:05:15.329Z,9.90
2023-02-17T05:07:43.116Z,9.90
2023-02-17T05:10:10.569Z,9.90
2023-02-17T05:12:37.415Z,10.00
2023-02-17T05:15:05.169Z,9.90
2023-02-17T05:17:32.242Z,9.90
2023-02-17T05:19:59.128Z,9.90
2023-02-17T05:22:26.378Z,9.90
2023-02-17T05:24:53.272Z,9.80
2023-02-17T05:27:20.484Z,9.80
2023-02-17T05:29:47.366Z,9.80
2023-02-17T05:32:14.269Z,9.70
2023-02-17T05:34:41.109Z,9.70
2023-02-17T05:37:07.892Z,9.70
2023-02-17T05:39:34.804Z,9.70
2023-02-17T05:42:01.725Z,9.80
2023-02-17T05:44:28.611Z,9.80
2023-02-17T05:46:55.484Z,9.70
2023-02-17T05:49:22.270Z,9.80
2023-02-17T05:51:49.121Z,9.70
2023-02-17T05:54:15.964Z,9.70
2023-02-17T05:56:42.841Z,9.70
2023-02-17T05:59:09.675Z,9.80
2023-02-17T06:01:37.408Z,9.90
2023-02-17T06:04:05.256Z,9.90
2023-02-17T06:06:32.037Z,9.80
2023-02-17T06:08:58.928Z,9.80
2023-02-17T06:11:26.225Z,9.80
2023-02-17T06:13:53.083Z,9.80
2023-02-17T06:16:20.059Z,9.80
2023-02-17T06:18:46.885Z,9.80
2023-02-17T06:21:13.731Z,9.80
2023-02-17T06:23:40.564Z,9.90
2023-02-17T06:26:07.717Z,10.00
2023-02-17T06:28:35.203Z,9.90
2023-02-17T06:31:02.294Z,9.90
2023-02-17T06:33:29.373Z,9.80
2023-02-17T06:35:56.342Z,9.80
2023-02-17T06:38:23.247Z,9.70
2023-02-17T06:40:50.149Z,9.60
2023-02-17T06:43:16.968Z,9.60
2023-02-17T06:45:43.797Z,9.60
2023-02-17T06:48:10.723Z,9.70
2023-02-17T06:50:38.074Z,9.70
2023-02-17T06:53:05.211Z,9.70
2023-02-17T06:55:32.111Z,9.80
2023-02-17T06:57:59.048Z,9.80
2023-02-17T07:00:27.230Z,9.80
2023-02-17T07:02:56.769Z,9.90
2023-02-17T07:05:23.686Z,9.90
2023-02-17T07:07:53.209Z,10.00
2023-02-17T07:10:20.208Z,10.00
2023-02-17T07:12:47.140Z,10.10
2023-02-17T07:15:15.001Z,10.20
2023-02-17T07:17:41.843Z,10.30
2023-02-17T07:20:09.465Z,10.30
2023-02-17T07:22:36.243Z,10.30
2023-02-17T07:25:03.553Z,10.40
2023-02-17T07:27:31.695Z,10.50
2023-02-17T07:29:58.749Z,10.60
2023-02-17T07:32:25.576Z,10.70
2023-02-17T07:34:52.378Z,10.70
2023-02-17T07:37:21.829Z,10.80
2023-02-17T07:39:49.014Z,11.00
2023-02-17T07:42:15.924Z,11.00
2023-02-17T07:44:42.825Z,11.10
2023-02-17T07:47:09.773Z,11.10
2023-02-17T07:49:36.637Z,11.10
2023-02-17T07:52:05.303Z,11.10
2023-02-17T07:54:32.405Z,11.10
2023-02-17T07:56:59.599Z,11.10
2023-02-17T07:59:26.534Z,11.20
2023-02-17T08:01:53.405Z,11.20
2023-02-17T08:04:20.649Z,11.30
2023-02-17T08:06:47.543Z,11.50
2023-02-17T08:09:32.967Z,11.70
2023-02-17T08:12:18.536Z,11.80
2023-02-17T08:14:45.396Z,11.80
2023-02-17T08:17:12.241Z,11.70
2023-02-17T08:19:47.975Z,11.70
2023-02-17T08:22:17.346Z,11.60
2023-02-17T08:24:44.481Z,11.70
2023-02-17T08:27:11.442Z,11.80
2023-02-17T08:29:38.255Z,11.90
2023-02-17T08:32:05.194Z,11.80
2023-02-17T08:34:34.955Z,11.80
2023-02-17T08:37:03.625Z,11.60
2023-02-17T08:39:31.149Z,11.50
2023-02-17T08:41:57.984Z,11.60
2023-02-17T08:44:25.375Z,11.60
2023-02-17T08:46:52.766Z,11.50
2023-02-17T08:49:23.103Z,11.60
2023-02-17T08:51:50.928Z,11.70
2023-02-17T08:54:18.436Z,11.80
2023-02-17T08:56:45.752Z,11.70
2023-02-17T08:59:13.647Z,11.50
2023-02-17T09:01:41.216Z,11.40
2023-02-17T09:04:10.906Z,11.30
2023-02-17T09:06:37.792Z,11.20
2023-02-17T09:09:07.602Z,11.20
2023-02-17T09:11:34.881Z,11.20
2023-02-17T09:14:02.618Z,11.10
2023-02-17T09:16:29.598Z,11.00
2023-02-17T09:18:56.822Z,11.00
2023-02-17T09:21:23.937Z,11.00
2023-02-17T09:23:51.258Z,11.00
2023-02-17T09:26:19.024Z,11.10
2023-02-17T09:28:46.878Z,11.20
2023-02-17T09:31:22.474Z,11.30
2023-02-17T09:33:50.310Z,11.40
2023-02-17T09:36:20.525Z,11.70
2023-02-17T09:38:52.546Z,11.80
2023-02-17T09:41:22.291Z,11.80
2023-02-17T09:43:50.796Z,11.80
2023-02-17T09:46:37.476Z,11.80
2023-02-17T09:49:15.776Z,11.80
2023-02-17T09:51:47.307Z,11.80
2023-02-17T09:54:41.798Z,11.80
2023-02-17T09:57:15.807Z,12.30
2023-02-17T09:59:47.805Z,12.50
2023-02-17T10:02:31.798Z,12.80
2023-02-17T10:05:03.179Z,13.00
2023-02-17T10:07:36.917Z,13.10
2023-02-17T10:10:34.849Z,13.20
2023-02-17T10:13:04.444Z,13.70
2023-02-17T10:15:38.808Z,14.40
2023-02-17T10:18:18.777Z,15.00
2023-02-17T10:20:55.672Z,15.10
2023-02-17T10:23:25.166Z,15.00
2023-02-17T10:26:25.149Z,14.80
2023-02-17T10:28:54.016Z,14.70
2023-02-17T10:31:31.394Z,14.80
2023-02-17T10:34:03.946Z,15.00
2023-02-17T10:36:42.883Z,15.20
2023-02-17T10:39:14.678Z,15.50
2023-02-17T10:41:44.330Z,15.70
2023-02-17T10:44:20.083Z,15.70
2023-02-17T10:46:48.660Z,16.10
2023-02-17T10:49:29.839Z,16.30
2023-02-17T10:52:02.115Z,16.10
2023-02-17T10:54:39.542Z,16.00
2023-02-17T10:57:13.030Z,16.80
2023-02-17T10:59:42.983Z,17.90
2023-02-17T11:02:23.599Z,18.50
2023-02-17T11:04:54.964Z,18.60
2023-02-17T11:07:36.186Z,18.10
2023-02-17T11:10:20.821Z,17.80
2023-02-17T11:12:51.205Z,17.20
2023-02-17T11:15:20.302Z,16.90
2023-02-17T11:17:48.518Z,17.20
2023-02-17T11:20:15.458Z,17.50
2023-02-17T11:22:45.901Z,17.40
2023-02-17T11:25:34.896Z,16.90
2023-02-17T11:28:04.696Z,16.50
2023-02-17T11:30:34.889Z,16.60
2023-02-17T11:33:15.902Z,17.00
2023-02-17T11:35:46.554Z,17.30
2023-02-17T11:38:25.908Z,17.60
2023-02-17T11:40:59.045Z,17.50
2023-02-17T11:43:28.639Z,17.30
2023-02-17T11:46:00.764Z,16.90
2023-02-17T11:49:06.577Z,16.70
2023-02-17T11:51:48.697Z,16.30
2023-02-17T11:54:51.093Z,16.10
2023-02-17T11:57:40.835Z,16.00
2023-02-17T12:00:22.657Z,15.70
2023-02-17T12:03:01.232Z,15.80
2023-02-17T12:05:31.204Z,15.50
2023-02-17T12:08:22.159Z,15.40
2023-02-17T12:11:22.389Z,15.60
2023-02-17T12:14:02.712Z,16.60
2023-02-17T12:16:48.789Z,17.70
2023-02-17T12:19:37.223Z,17.40
2023-02-17T12:22:13.733Z,16.50
2023-02-17T12:25:04.299Z,15.80
2023-02-17T12:27:31.068Z,15.50
2023-02-17T12:30:12.918Z,15.30
2023-02-17T12:33:12.055Z,14.90
2023-02-17T12:35:53.040Z,14.50
2023-02-17T12:38:26.569Z,14.50
2023-02-17T12:41:05.872Z,14.50
2023-02-17T12:43:36.392Z,14.40
2023-02-17T12:46:09.745Z,14.30
2023-02-17T12:49:06.554Z,14.50
2023-02-17T12:51:57.393Z,14.50
2023-02-17T12:54:36.474Z,14.40
2023-02-17T12:57:15.083Z,14.30
2023-02-17T12:59:52.505Z,14.30
2023-02-17T13:02:20.804Z,14.20
2023-02-17T13:04:53.668Z,14.20
2023-02-17T13:07:36.131Z,14.20
2023-02-17T13:10:03.605Z,14.20
2023-02-17T13:12:34.894Z,14.10
2023-02-17T13:15:06.153Z,14.00
2023-02-17T13:17:32.936Z,14.00
2023-02-17T13:20:12.162Z,14.00
2023-02-17T13:22:40.558Z,13.90
2023-02-17T13:25:12.288Z,13.80
2023-02-17T13:27:40.099Z,13.70
2023-02-17T13:30:25.844Z,13.60
2023-02-17T13:33:04.470Z,13.70
2023-02-17T13:35:34.557Z,13.70
2023-02-17T13:38:01.509Z,13.70
2023-02-17T13:40:38.123Z,13.60
2023-02-17T13:43:16.490Z,13.60
2023-02-17T13:45:52.980Z,13.50
2023-02-17T13:48:31.062Z,13.40
2023-02-17T13:50:59.132Z,13.30
2023-02-17T13:53:39.408Z,13.20
2023-02-17T13:56:23.677Z,13.20
2023-02-17T13:58:50.672Z,13.20
2023-02-17T14:01:22.556Z,13.10
2023-02-17T14:03:51.840Z,13.20
2023-02-17T14:06:34.096Z,13.20
2023-02-17T14:09:00.922Z,13.10
2023-02-17T14:11:30.728Z,13.20
2023-02-17T14:13:59.884Z,13.20
2023-02-17T14:16:34.179Z,13.10
2023-02-17T14:19:06.057Z,13.10
2023-02-17T14:21:33.974Z,13.10
2023-02-17T14:24:01.264Z,13.00
2023-02-17T14:26:47.387Z,13.10
2023-02-17T14:29:15.112Z,13.10
2023-02-17T14:31:48.527Z,13.10
2023-02-17T14:34:21.258Z,13.10
2023-02-17T14:36:48.055Z,13.10
2023-02-17T14:39:16.012Z,13.20
2023-02-17T14:41:43.653Z,13.10
2023-02-17T14:44:10.566Z,13.10
2023-02-17T14:46:38.366Z,13.10
2023-02-17T14:49:05.206Z,13.10
2023-02-17T14:51:37.326Z,13.10
2023-02-17T14:54:14.838Z,13.00
2023-02-17T14:56:48.122Z,13.00
2023-02-17T14:59:14.912Z,13.00
2023-02-17T15:01:41.711Z,12.90
2023-02-17T15:04:08.646Z,12.90
2023-02-17T15:06:46.858Z,12.90
2023-02-17T15:09:16.735Z,12.90
2023-02-17T15:11:49.057Z,12.80
2023-02-17T15:14:18.654Z,12.80
2023-02-17T15:16:46.394Z,12.80
2023-02-17T15:19:18.190Z,12.70
2023-02-17T15:21:49.379Z,12.80
2023-02-17T15:24:23.489Z,12.80
2023-02-17T15:26:50.795Z,12.70
2023-02-17T15:29:19.697Z,12.70
2023-02-17T15:31:47.701Z,12.70
2023-02-17T15:34:17.237Z,12.70
2023-02-17T15:36:44.516Z,12.70
2023-02-17T15:39:17.448Z,12.70
2023-02-17T15:41:46.483Z,12.70
2023-02-17T15:44:17.618Z,12.70
2023-02-17T15:46:46.267Z,12.70
2023-02-17T15:49:13.701Z,12.80
2023-02-17T15:51:40.493Z,12.80
2023-02-17T15:54:07.332Z,12.80
2023-02-17T15:56:48.639Z,12.70
2023-02-17T15:59:21.458Z,12.70
2023-02-17T16:01:48.938Z,12.70
2023-02-17T16:04:15.935Z,12.70
2023-02-17T16:06:43.363Z,12.70
2023-02-17T16:09:10.767Z,12.70
2023-02-17T16:11:47.461Z,12.60
2023-02-17T16:14:28.416Z,12.60
2023-02-17T16:16:55.832Z,12.60
2023-02-17T16:19:22.687Z,12.60
2023-02-17T16:21:49.548Z,12.60
2023-02-17T16:24:16.334Z,12.60
2023-02-17T16:26:44.124Z,12.50
2023-02-17T16:29:19.625Z,12.40
2023-02-17T16:31:47.205Z,12.40
2023-02-17T16:34:24.543Z,12.30
2023-02-17T16:36:53.745Z,12.20
2023-02-17T16:39:21.341Z,12.10
2023-02-17T16:41:49.233Z,12.00
2023-02-17T16:44:17.688Z,11.90
2023-02-17T16:46:52.398Z,11.80
2023-02-17T16:49:25.872Z,11.80
2023-02-17T16:51:52.911Z,11.70
2023-02-17T16:54:19.973Z,11.70
2023-02-17T16:56:50.208Z,11.70
2023-02-17T16:59:20.424Z,11.70
2023-02-17T17:01:48.353Z,11.70
2023-02-17T17:04:15.985Z,11.60
2023-02-17T17:06:46.239Z,11.50
2023-02-17T17:09:21.243Z,11.50
2023-02-17T17:11:48.450Z,11.50
2023-02-17T17:14:15.830Z,11.50
2023-02-17T17:16:50.797Z,11.50
2023-02-17T17:19:18.232Z,11.50
2023-02-17T17:21:45.076Z,11.40
2023-02-17T17:24:11.945Z,11.40
2023-02-17T17:26:45.516Z,11.40
2023-02-17T17:29:14.391Z,11.30
2023-02-17T17:31:41.930Z,11.30
2023-02-17T17:34:08.858Z,11.20
2023-02-17T17:36:43.597Z,11.20
2023-02-17T17:39:22.264Z,11.20
2023-02-17T17:41:49.748Z,11.20
2023-02-17T17:44:16.844Z,11.20
2023-02-17T17:46:43.782Z,11.10
2023-02-17T17:49:13.760Z,11.10
2023-02-17T17:51:41.072Z,11.10
2023-02-17T17:54:09.058Z,11.10
2023-02-17T17:56:39.261Z,11.10
2023-02-17T17:59:06.558Z,11.00
2023-02-17T18:01:33.490Z,11.00
2023-02-17T18:04:00.770Z,11.00
2023-02-17T18:06:34.009Z,11.00
2023-02-17T18:09:04.511Z,11.10
2023-02-17T18:11:32.210Z,11.10
2023-02-17T18:14:02.653Z,11.00
2023-02-17T18:16:31.087Z,11.00
2023-02-17T18:19:00.988Z,11.00
2023-02-17T18:21:27.824Z,11.00
2023-02-17T18:23:54.598Z,11.00
2023-02-17T18:26:21.424Z,11.00
2023-02-17T18:28:48.244Z,11.00
2023-02-17T18:31:16.223Z,11.00
2023-02-17T18:33:43.379Z,11.00
2023-02-17T18:36:16.866Z,11.00
2023-02-17T18:38:44.781Z,11.00
2023-02-17T18:41:25.531Z,11.00
2023-02-17T18:43:53.178Z,11.00
2023-02-17T18:46:20.414Z,11.00
2023-02-17T18:48:47.293Z,11.00
2023-02-17T18:51:16.292Z,10.90
2023-02-17T18:53:43.310Z,11.00
2023-02-17T18:56:13.346Z,11.00
2023-02-17T18:58:40.984Z,11.00
2023-02-17T19:01:14.452Z,11.00
2023-02-17T19:03:41.471Z,11.00
2023-02-17T19:06:12.895Z,11.10
2023-02-17T19:08:40.817Z,11.10
2023-02-17T19:11:08.255Z,11.00
2023-02-17T19:13:36.064Z,11.10
2023-02-17T19:16:07.970Z,11.10
2023-02-17T19:18:35.037Z,11.10
2023-02-17T19:21:02.018Z,11.10
2023-02-17T19:23:29.262Z,11.10
2023-02-17T19:25:56.217Z,11.10
2023-02-17T19:28:23.372Z,11.00
2023-02-17T19:30:50.188Z,11.10
2023-02-17T19:33:16.986Z,11.20
2023-02-17T19:35:44.965Z,11.10
2023-02-17T19:38:11.771Z,11.20
2023-02-17T19:40:38.677Z,11.20
2023-02-17T19:43:06.045Z,11.20
2023-02-17T19:45:33.008Z,11.20
2023-02-17T19:47:59.869Z,11.20
2023-02-17T19:50:26.677Z,11.10
2023-02-17T19:52:53.511Z,11.10
2023-02-17T19:55:21.375Z,11.20
2023-02-17T19:57:51.145Z,11.20
2023-02-17T20:00:18.191Z,11.10
2023-02-17T20:02:45.120Z,11.10
2023-02-17T20:05:12.036Z,11.10
2023-02-17T20:07:38.947Z,11.10
2023-02-17T20:10:10.711Z,11.10
2023-02-17T20:12:38.085Z,11.20
2023-02-17T20:15:05.393Z,11.20
2023-02-17T20:17:32.339Z,11.20
2023-02-17T20:19:59.634Z,11.20
2023-02-17T20:22:26.623Z,11.10
2023-02-17T20:24:53.550Z,11.10
2023-02-17T20:27:20.370Z,11.10
2023-02-17T20:29:47.234Z,11.00
2023-02-17T20:32:14.327Z,11.00
2023-02-17T20:34:41.269Z,11.00
2023-02-17T20:37:08.629Z,11.00
2023-02-17T20:39:36.421Z,11.00
2023-02-17T20:42:04.021Z,11.10
2023-02-17T20:44:30.992Z,11.10
2023-02-17T20:46:58.291Z,11.20
2023-02-17T20:49:26.248Z,11.20
2023-02-17T20:51:53.076Z,11.20
2023-02-17T20:54:19.931Z,11.30
2023-02-17T20:56:47.612Z,11.30
2023-02-17T20:59:15.391Z,11.30
2023-02-17T21:01:42.656Z,11.40
2023-02-17T21:04:10.546Z,11.40
2023-02-17T21:06:43.012Z,11.50
2023-02-17T21:09:15.295Z,11.50
2023-02-17T21:11:42.791Z,11.60
2023-02-17T21:14:09.871Z,11.60
2023-02-17T21:16:36.720Z,11.50
2023-02-17T21:19:04.073Z,11.60
2023-02-17T21:21:31.870Z,11.60
2023-02-17T21:23:59.536Z,11.60
2023-02-17T21:26:26.505Z,11.60
2023-02-17T21:28:54.334Z,11.70
2023-02-17T21:31:21.348Z,11.70
2023-02-17T21:33:48.428Z,11.70
2023-02-17T21:36:17.401Z,11.70
2023-02-17T21:38:44.423Z,11.70
2023-02-17T21:41:19.865Z,11.70
2023-02-17T21:44:05.743Z,11.70
2023-02-17T21:46:33.583Z,11.80
2023-02-17T21:49:01.757Z,11.80
2023-02-17T21:51:29.086Z,11.80
2023-02-17T21:53:56.365Z,11.80
2023-02-17T21:56:23.849Z,11.80
2023-02-17T21:58:52.489Z,11.70
2023-02-17T22:01:20.482Z,11.70
2023-02-17T22:03:47.287Z,11.70
2023-02-17T22:06:25.912Z,11.70
2023-02-17T22:08:52.999Z,11.80
2023-02-17T22:11:28.915Z,11.70
2023-02-17T22:13:58.174Z,11.70
2023-02-17T22:16:26.180Z,11.80
2023-02-17T22:18:53.032Z,11.80
2023-02-17T22:21:20.002Z,11.80
2023-02-17T22:23:47.078Z,11.80
2023-02-17T22:26:20.070Z,11.80
2023-02-17T22:28:47.108Z,11.80
2023-02-17T22:31:15.984Z,11.70
2023-02-17T22:33:43.600Z,11.70
2023-02-17T22:36:13.926Z,11.80
2023-02-17T22:38:41.041Z,11.80
2023-02-17T22:41:10.068Z,11.80
2023-02-17T22:43:40.158Z,11.80
2023-02-17T22:46:08.510Z,11.80
2023-02-17T22:48:37.680Z,11.80
2023-02-17T22:51:13.349Z,11.70
2023-02-17T22:53:40.725Z,11.70
2023-02-17T22:56:09.302Z,11.70
2023-02-17T22:58:36.755Z,11.70
2023-02-17T23:01:08.177Z,11.60
2023-02-17T23:03:35.709Z,11.60
2023-02-17T23:06:05.353Z,11.60
2023-02-17T23:08:32.882Z,11.60
2023-02-17T23:11:03.343Z,11.60
2023-02-17T23:13:30.122Z,11.60
2023-02-17T23:15:56.948Z,11.50
2023-02-17T23:18:23.974Z,11.50
2023-02-17T23:20:55.040Z,11.50
2023-02-17T23:23:22.035Z,11.50
2023-02-17T23:25:51.430Z,11.50
2023-02-17T23:28:20.277Z,11.40
2023-02-17T23:30:48.132Z,11.40
2023-02-17T23:33:16.492Z,11.40
2023-02-17T23:35:47.911Z,11.30
2023-02-17T23:38:18.175Z,11.30
2023-02-17T23:40:51.593Z,11.30
2023-02-17T23:43:19.382Z,11.30
2023-02-17T23:45:46.252Z,11.20
2023-02-17T23:48:13.744Z,11.20
2023-02-17T23:50:40.898Z,11.20
2023-02-17T23:53:08.216Z,11.10
2023-02-17T23:55:35.002Z,11.10
2023-02-17T23:58:02.000Z,11.10
